createdAt,value
2023-05-31T00:00:20.070Z,54
2023-05-31T00:02:26.673Z,54
2023-05-31T00:03:23.561Z,54
2023-05-31T00:04:24.554Z,54
2023-05-31T00:05:23.552Z,54
2023-05-31T00:06:24.659Z,54
2023-05-31T00:07:20.245Z,54
2023-05-31T00:08:27.469Z,54
2023-05-31T00:09:27.686Z,54
2023-05-31T00:10:22.374Z,54
2023-05-31T00:11:24.073Z,54
2023-05-31T00:12:22.208Z,54
2023-05-31T00:13:25.078Z,54
2023-05-31T00:14:20.508Z,54
2023-05-31T00:15:22.262Z,54
2023-05-31T00:16:52.338Z,54
2023-05-31T00:17:50.072Z,54
2023-05-31T00:18:27.334Z,54
2023-05-31T00:19:21.081Z,55
2023-05-31T00:20:24.613Z,55
2023-05-31T00:21:20.464Z,55
2023-05-31T00:22:32.736Z,54
2023-05-31T00:23:22.589Z,55
2023-05-31T00:25:33.641Z,55
2023-05-31T00:26:28.506Z,55
2023-05-31T00:27:26.503Z,55
2023-05-31T00:28:21.657Z,55
2023-05-31T00:29:30.117Z,55
2023-05-31T00:30:22.847Z,56
2023-05-31T00:31:24.047Z,55
2023-05-31T00:32:23.422Z,55
2023-05-31T00:33:28.833Z,55
2023-05-31T00:34:21.775Z,55
2023-05-31T00:35:21.513Z,55
2023-05-31T00:36:31.030Z,55
2023-05-31T00:37:26.651Z,55
2023-05-31T00:38:22.609Z,55
2023-05-31T00:39:32.309Z,55
2023-05-31T00:40:30.409Z,55
2023-05-31T00:41:20.685Z,55
2023-05-31T00:42:21.225Z,55
2023-05-31T00:43:22.844Z,56
2023-05-31T00:44:28.738Z,56
2023-05-31T00:45:23.138Z,56
2023-05-31T00:46:32.416Z,56
2023-05-31T00:47:30.180Z,57
2023-05-31T00:48:24.446Z,56
2023-05-31T00:49:22.930Z,56
2023-05-31T00:50:26.748Z,57
2023-05-31T00:51:20.674Z,58
2023-05-31T00:52:23.731Z,58
2023-05-31T00:53:34.550Z,57
2023-05-31T00:54:28.230Z,58
2023-05-31T00:55:28.655Z,58
2023-05-31T00:56:20.324Z,58
2023-05-31T00:57:32.402Z,58
2023-05-31T00:58:26.178Z,58
2023-05-31T00:59:22.337Z,58
2023-05-31T01:00:23.846Z,58
2023-05-31T01:01:30.997Z,58
2023-05-31T01:02:30.902Z,59
2023-05-31T01:03:34.202Z,60
2023-05-31T01:04:42.724Z,61
2023-05-31T01:05:32.500Z,61
2023-05-31T01:12:27.515Z,61
2023-05-31T01:13:25.508Z,63
2023-05-31T01:15:43.841Z,65
2023-05-31T01:15:51.394Z,64
2023-05-31T01:22:29.038Z,63
2023-05-31T01:23:26.685Z,62
2023-05-31T01:24:21.665Z,61
2023-05-31T01:25:31.274Z,61
2023-05-31T01:26:29.179Z,61
2023-05-31T01:27:25.269Z,60
2023-05-31T01:28:21.360Z,61
2023-05-31T01:29:20.642Z,59
2023-05-31T01:30:24.494Z,61
2023-05-31T01:31:22.537Z,61
2023-05-31T01:32:31.164Z,62
2023-05-31T01:33:26.167Z,61
2023-05-31T01:34:29.074Z,61
2023-05-31T01:35:24.391Z,60
2023-05-31T01:36:24.278Z,61
2023-05-31T01:37:24.321Z,61
2023-05-31T01:38:20.577Z,61
2023-05-31T01:39:29.998Z,60
2023-05-31T01:40:27.858Z,60
2023-05-31T01:41:22.234Z,60
2023-05-31T01:42:35.491Z,60
2023-05-31T01:43:44.993Z,61
2023-05-31T01:44:26.416Z,61
2023-05-31T01:45:20.413Z,61
2023-05-31T01:46:21.737Z,61
2023-05-31T01:47:28.278Z,61
2023-05-31T01:48:24.182Z,60
2023-05-31T01:49:27.108Z,61
2023-05-31T01:50:28.277Z,61
2023-05-31T01:51:30.275Z,61
2023-05-31T01:52:20.555Z,62
2023-05-31T01:53:27.245Z,62
2023-05-31T01:54:45.278Z,62
2023-05-31T01:55:24.633Z,62
2023-05-31T01:56:21.393Z,62
2023-05-31T01:57:21.625Z,62
2023-05-31T01:58:24.296Z,63
2023-05-31T01:59:23.258Z,62
2023-05-31T02:00:30.813Z,62
2023-05-31T02:01:27.852Z,63
2023-05-31T02:02:25.135Z,63
2023-05-31T02:03:38.928Z,63
2023-05-31T02:04:29.054Z,63
2023-05-31T02:05:22.585Z,64
2023-05-31T02:06:20.108Z,62
2023-05-31T02:07:21.113Z,63
2023-05-31T02:08:27.522Z,62
2023-05-31T02:09:22.303Z,64
2023-05-31T02:10:32.734Z,64
2023-05-31T02:11:32.972Z,64
2023-05-31T02:12:24.908Z,63
2023-05-31T02:13:22.554Z,63
2023-05-31T02:14:24.187Z,62
2023-05-31T02:15:21.692Z,62
2023-05-31T02:16:24.497Z,62
2023-05-31T02:17:34.741Z,61
2023-05-31T02:18:30.463Z,61
2023-05-31T02:19:27.529Z,61
2023-05-31T02:20:20.885Z,61
2023-05-31T02:21:30.931Z,61
2023-05-31T02:22:29.293Z,61
2023-05-31T02:23:23.472Z,61
2023-05-31T02:24:33.806Z,61
2023-05-31T02:25:30.357Z,61
2023-05-31T02:26:24.812Z,62
2023-05-31T02:27:21.684Z,62
2023-05-31T02:28:34.540Z,62
2023-05-31T02:29:26.538Z,62
2023-05-31T02:30:24.183Z,61
2023-05-31T02:31:33.309Z,61
2023-05-31T02:32:30.234Z,62
2023-05-31T02:33:24.505Z,62
2023-05-31T02:34:20.677Z,62
2023-05-31T02:35:22.813Z,62
2023-05-31T02:36:29.197Z,62
2023-05-31T02:37:22.772Z,61
2023-05-31T02:38:32.314Z,62
2023-05-31T02:39:30.223Z,62
2023-05-31T02:40:25.398Z,62
2023-05-31T02:41:21.150Z,61
2023-05-31T02:42:28.194Z,61
2023-05-31T02:43:27.067Z,62
2023-05-31T02:44:22.659Z,62
2023-05-31T02:45:20.341Z,62
2023-05-31T02:46:28.704Z,62
2023-05-31T02:47:29.709Z,61
2023-05-31T02:48:20.479Z,62
2023-05-31T02:49:30.282Z,61
2023-05-31T02:50:24.273Z,61
2023-05-31T02:51:23.145Z,62
2023-05-31T02:52:25.618Z,62
2023-05-31T02:53:30.230Z,62
2023-05-31T02:54:24.153Z,62
2023-05-31T02:55:22.109Z,62
2023-05-31T02:56:32.413Z,62
2023-05-31T02:57:28.091Z,62
2023-05-31T02:58:27.881Z,62
2023-05-31T02:59:28.329Z,62
2023-05-31T03:00:21.457Z,62
2023-05-31T03:01:24.413Z,62
2023-05-31T03:02:21.037Z,62
2023-05-31T03:03:31.191Z,62
2023-05-31T03:04:33.003Z,64
2023-05-31T03:05:24.186Z,63
2023-05-31T03:06:46.257Z,62
2023-05-31T03:08:24.708Z,62
2023-05-31T03:09:20.564Z,62
2023-05-31T03:10:34.993Z,62
2023-05-31T03:11:26.791Z,62
2023-05-31T03:12:24.746Z,62
2023-05-31T03:13:21.116Z,62
2023-05-31T03:14:29.866Z,63
2023-05-31T03:15:26.716Z,63
2023-05-31T03:16:20.389Z,64
2023-05-31T03:17:30.656Z,64
2023-05-31T03:18:29.463Z,63
2023-05-31T03:19:22.523Z,64
2023-05-31T03:20:25.259Z,65
2023-05-31T03:21:29.938Z,63
2023-05-31T03:22:28.787Z,64
2023-05-31T03:23:20.307Z,63
2023-05-31T03:24:31.902Z,63
2023-05-31T03:25:41.886Z,64
2023-05-31T03:26:23.878Z,64
2023-05-31T03:27:24.685Z,64
2023-05-31T03:28:22.519Z,64
2023-05-31T03:29:25.481Z,64
2023-05-31T03:30:22.113Z,64
2023-05-31T03:31:19.791Z,64
2023-05-31T03:32:29.294Z,65
2023-05-31T03:33:22.493Z,66
2023-05-31T03:34:27.658Z,65
2023-05-31T03:35:30.264Z,67
2023-05-31T03:36:24.731Z,69
2023-05-31T03:37:20.731Z,68
2023-05-31T03:38:25.012Z,69
2023-05-31T03:39:26.781Z,70
2023-05-31T03:40:25.192Z,69
2023-05-31T03:41:34.480Z,69
2023-05-31T03:42:30.064Z,68
2023-05-31T03:43:26.379Z,68
2023-05-31T03:44:20.700Z,68
2023-05-31T03:45:26.443Z,67
2023-05-31T03:46:28.621Z,68
2023-05-31T03:47:23.193Z,71
2023-05-31T03:48:35.473Z,71
2023-05-31T03:49:20.274Z,72
2023-05-31T03:50:28.241Z,72
2023-05-31T03:51:20.594Z,71
2023-05-31T03:52:30.395Z,71
2023-05-31T03:53:22.607Z,71
2023-05-31T03:54:22.301Z,71
2023-05-31T03:55:38.662Z,71
2023-05-31T03:56:23.655Z,71
2023-05-31T03:57:25.992Z,71
2023-05-31T03:58:20.584Z,71
2023-05-31T03:59:34.048Z,72
2023-05-31T04:00:27.787Z,73
2023-05-31T04:01:23.226Z,73
2023-05-31T04:02:33.962Z,71
2023-05-31T04:03:29.266Z,72
2023-05-31T04:04:25.398Z,73
2023-05-31T04:05:20.561Z,72
2023-05-31T04:06:20.804Z,71
2023-05-31T04:07:21.646Z,72
2023-05-31T04:08:26.642Z,71
2023-05-31T04:09:34.255Z,70
2023-05-31T04:10:29.854Z,70
2023-05-31T04:11:23.831Z,70
2023-05-31T04:12:20.441Z,69
2023-05-31T04:13:26.253Z,69
2023-05-31T04:14:26.649Z,69
2023-05-31T04:15:22.570Z,69
2023-05-31T04:16:22.189Z,69
2023-05-31T04:17:31.367Z,69
2023-05-31T04:18:20.463Z,69
2023-05-31T04:19:21.935Z,68
2023-05-31T04:20:32.394Z,69
2023-05-31T04:21:22.024Z,69
2023-05-31T04:22:22.352Z,69
2023-05-31T04:23:27.734Z,68
2023-05-31T04:24:29.754Z,68
2023-05-31T04:25:25.379Z,68
2023-05-31T04:26:22.485Z,67
2023-05-31T04:27:32.230Z,67
2023-05-31T04:28:26.732Z,68
2023-05-31T04:29:38.033Z,68
2023-05-31T04:30:30.675Z,67
2023-05-31T04:31:22.452Z,67
2023-05-31T04:32:28.670Z,67
2023-05-31T04:33:20.552Z,68
2023-05-31T04:34:32.250Z,68
2023-05-31T04:35:26.708Z,66
2023-05-31T04:36:24.623Z,67
2023-05-31T04:37:36.097Z,68
2023-05-31T04:38:28.908Z,68
2023-05-31T04:39:25.744Z,67
2023-05-31T04:40:20.854Z,67
2023-05-31T04:41:30.548Z,67
2023-05-31T04:42:27.745Z,68
2023-05-31T04:43:24.526Z,68
2023-05-31T04:44:20.521Z,68
2023-05-31T04:45:34.139Z,68
2023-05-31T04:46:24.665Z,68
2023-05-31T04:47:20.907Z,67
2023-05-31T04:48:30.604Z,67
2023-05-31T04:49:27.892Z,67
2023-05-31T04:50:22.555Z,67
2023-05-31T04:51:26.117Z,67
2023-05-31T04:52:28.981Z,68
2023-05-31T04:53:24.276Z,67
2023-05-31T04:54:21.738Z,66
2023-05-31T04:55:30.438Z,66
2023-05-31T04:56:28.137Z,66
2023-05-31T04:57:22.598Z,66
2023-05-31T04:58:29.084Z,65
2023-05-31T04:59:21.916Z,65
2023-05-31T05:00:24.423Z,65
2023-05-31T05:01:20.482Z,65
2023-05-31T05:02:32.061Z,65
2023-05-31T05:03:27.359Z,66
2023-05-31T05:04:24.557Z,65
2023-05-31T05:05:19.542Z,64
2023-05-31T05:06:25.333Z,65
2023-05-31T05:07:24.505Z,65
2023-05-31T05:08:22.246Z,64
2023-05-31T05:09:23.321Z,64
2023-05-31T05:10:26.166Z,64
2023-05-31T05:11:24.232Z,64
2023-05-31T05:12:35.066Z,63
2023-05-31T05:13:29.884Z,63
2023-05-31T05:14:26.395Z,63
2023-05-31T05:15:20.239Z,63
2023-05-31T05:16:28.267Z,63
2023-05-31T05:17:19.602Z,63
2023-05-31T05:18:22.445Z,63
2023-05-31T05:19:25.905Z,63
2023-05-31T05:20:29.634Z,63
2023-05-31T05:21:25.628Z,62
2023-05-31T05:22:21.381Z,62
2023-05-31T05:23:20.517Z,62
2023-05-31T05:24:24.671Z,62
2023-05-31T05:25:22.409Z,62
2023-05-31T05:26:29.192Z,62
2023-05-31T05:27:28.652Z,62
2023-05-31T05:28:24.611Z,62
2023-05-31T05:29:20.315Z,62
2023-05-31T05:30:23.611Z,62
2023-05-31T05:31:27.911Z,62
2023-05-31T05:32:22.814Z,62
2023-05-31T05:33:32.732Z,62
2023-05-31T05:34:28.713Z,63
2023-05-31T05:35:19.900Z,62
2023-05-31T05:36:20.090Z,62
2023-05-31T05:37:21.426Z,61
2023-05-31T05:38:26.652Z,61
2023-05-31T05:39:22.737Z,61
2023-05-31T05:40:36.862Z,61
2023-05-31T05:41:21.873Z,62
2023-05-31T05:42:26.632Z,62
2023-05-31T05:43:20.971Z,61
2023-05-31T05:44:24.068Z,61
2023-05-31T05:45:26.807Z,61
2023-05-31T05:46:24.246Z,61
2023-05-31T05:47:31.490Z,61
2023-05-31T05:48:25.206Z,60
2023-05-31T05:49:26.915Z,61
2023-05-31T05:50:21.398Z,60
2023-05-31T05:51:28.481Z,60
2023-05-31T05:52:23.302Z,60
2023-05-31T05:53:22.729Z,60
2023-05-31T05:54:26.452Z,60
2023-05-31T05:56:26.949Z,60
2023-05-31T05:57:20.416Z,60
2023-05-31T05:58:28.826Z,60
2023-05-31T05:59:26.612Z,60
2023-05-31T06:00:23.185Z,59
2023-05-31T06:01:36.185Z,59
2023-05-31T06:02:24.372Z,60
2023-05-31T06:03:24.818Z,60
2023-05-31T06:04:20.438Z,60
2023-05-31T06:05:31.192Z,59
2023-05-31T06:06:30.890Z,59
2023-05-31T06:07:22.702Z,60
2023-05-31T06:08:35.038Z,60
2023-05-31T06:09:24.958Z,60
2023-05-31T06:10:21.808Z,60
2023-05-31T06:11:51.068Z,60
2023-05-31T06:12:31.872Z,59
2023-05-31T06:13:28.417Z,59
2023-05-31T06:14:22.820Z,59
2023-05-31T06:15:28.880Z,59
2023-05-31T06:16:30.300Z,59
2023-05-31T06:17:24.920Z,59
2023-05-31T06:18:20.616Z,59
2023-05-31T06:19:33.507Z,59
2023-05-31T06:20:27.328Z,59
2023-05-31T06:21:23.622Z,58
2023-05-31T06:22:24.678Z,58
2023-05-31T06:23:29.650Z,58
2023-05-31T06:24:29.743Z,58
2023-05-31T06:25:21.930Z,58
2023-05-31T06:26:27.504Z,58
2023-05-31T06:27:26.342Z,58
2023-05-31T06:28:22.505Z,58
2023-05-31T06:29:29.437Z,58
2023-05-31T06:30:20.152Z,58
2023-05-31T06:31:24.194Z,58
2023-05-31T06:32:22.616Z,57
2023-05-31T06:33:20.198Z,57
2023-05-31T06:34:31.591Z,57
2023-05-31T06:35:24.889Z,57
2023-05-31T06:36:32.497Z,56
2023-05-31T06:37:25.940Z,56
2023-05-31T06:38:42.954Z,56
2023-05-31T06:39:21.622Z,56
2023-05-31T06:40:23.836Z,56
2023-05-31T06:41:27.356Z,55
2023-05-31T06:42:24.401Z,56
2023-05-31T06:43:27.669Z,56
2023-05-31T06:44:30.800Z,56
2023-05-31T06:45:21.026Z,56
2023-05-31T06:46:22.959Z,56
2023-05-31T06:47:32.391Z,55
2023-05-31T06:48:21.386Z,55
2023-05-31T06:49:24.042Z,55
2023-05-31T06:50:32.610Z,54
2023-05-31T06:51:28.357Z,55
2023-05-31T06:52:27.030Z,55
2023-05-31T06:53:21.407Z,55
2023-05-31T06:54:26.663Z,55
2023-05-31T06:55:27.313Z,55
2023-05-31T06:56:23.633Z,55
2023-05-31T06:57:21.062Z,55
2023-05-31T06:58:28.758Z,55
2023-05-31T06:59:24.418Z,55
2023-05-31T07:00:23.692Z,55
2023-05-31T07:01:30.632Z,55
2023-05-31T07:02:30.983Z,55
2023-05-31T07:03:23.228Z,54
2023-05-31T07:04:23.304Z,55
2023-05-31T07:05:23.103Z,55
2023-05-31T07:06:24.392Z,55
2023-05-31T07:07:20.738Z,54
2023-05-31T07:08:30.359Z,54
2023-05-31T07:09:26.582Z,54
2023-05-31T07:10:23.133Z,54
2023-05-31T07:11:32.901Z,54
2023-05-31T07:12:28.580Z,53
2023-05-31T07:13:26.234Z,54
2023-05-31T07:14:20.397Z,54
2023-05-31T07:15:23.347Z,53
2023-05-31T07:16:26.449Z,53
2023-05-31T07:17:22.895Z,53
2023-05-31T07:18:23.256Z,53
2023-05-31T07:19:29.230Z,52
2023-05-31T07:20:25.951Z,52
2023-05-31T07:21:20.771Z,52
2023-05-31T07:22:29.073Z,51
2023-05-31T07:23:20.416Z,51
2023-05-31T07:24:22.789Z,52
2023-05-31T07:25:27.381Z,52
2023-05-31T07:26:20.508Z,51
2023-05-31T07:27:24.596Z,50
2023-05-31T07:28:20.610Z,50
2023-05-31T07:29:28.539Z,50
2023-05-31T07:30:29.222Z,50
2023-05-31T07:31:22.320Z,50
2023-05-31T07:32:32.893Z,49
2023-05-31T07:33:28.729Z,48
2023-05-31T07:34:24.513Z,48
2023-05-31T07:35:20.628Z,48
2023-05-31T07:36:30.845Z,48
2023-05-31T07:37:27.814Z,47
2023-05-31T07:38:22.468Z,47
2023-05-31T07:39:37.431Z,46
2023-05-31T07:40:25.834Z,46
2023-05-31T07:41:24.121Z,45
2023-05-31T07:42:20.723Z,44
2023-05-31T07:43:32.949Z,45
2023-05-31T07:44:20.398Z,45
2023-05-31T07:45:26.371Z,44
2023-05-31T07:46:32.786Z,44
2023-05-31T07:47:28.984Z,44
2023-05-31T07:48:26.519Z,43
2023-05-31T07:49:20.336Z,43
2023-05-31T07:50:22.782Z,43
2023-05-31T07:51:24.946Z,42
2023-05-31T07:52:22.838Z,42
2023-05-31T07:53:23.337Z,42
2023-05-31T07:54:28.819Z,42
2023-05-31T07:55:24.598Z,40
2023-05-31T07:56:20.442Z,41
2023-05-31T07:57:32.040Z,41
2023-05-31T07:58:26.768Z,40
2023-05-31T07:59:22.610Z,41
2023-05-31T08:00:29.563Z,40
2023-05-31T08:01:20.696Z,39
2023-05-31T08:02:24.615Z,40
2023-05-31T08:03:28.993Z,39
2023-05-31T08:04:20.438Z,38
2023-05-31T08:05:26.873Z,38
2023-05-31T08:06:22.794Z,39
2023-05-31T08:07:24.691Z,39
2023-05-31T08:08:31.002Z,38
2023-05-31T08:09:24.658Z,39
2023-05-31T08:10:20.445Z,38
2023-05-31T08:11:24.784Z,36
2023-05-31T08:12:31.705Z,37
2023-05-31T08:13:23.153Z,36
2023-05-31T08:14:33.424Z,37
2023-05-31T08:15:30.236Z,38
2023-05-31T08:16:20.139Z,38
2023-05-31T08:17:20.854Z,37
2023-05-31T08:18:21.653Z,37
2023-05-31T08:19:21.901Z,37
2023-05-31T08:20:22.868Z,36
2023-05-31T08:21:32.457Z,36
2023-05-31T08:22:31.262Z,37
2023-05-31T08:23:24.640Z,36
2023-05-31T08:24:22.842Z,36
2023-05-31T08:25:34.788Z,35
2023-05-31T08:26:26.205Z,35
2023-05-31T08:27:22.629Z,36
2023-05-31T08:28:34.913Z,35
2023-05-31T08:29:28.639Z,35
2023-05-31T08:30:26.955Z,35
2023-05-31T08:31:35.986Z,35
2023-05-31T08:32:33.224Z,34
2023-05-31T08:33:28.362Z,32
2023-05-31T08:34:24.288Z,34
2023-05-31T08:35:24.486Z,34
2023-05-31T08:36:28.158Z,34
2023-05-31T08:37:25.185Z,34
2023-05-31T08:38:21.942Z,33
2023-05-31T08:39:30.849Z,33
2023-05-31T08:41:22.301Z,34
2023-05-31T08:42:22.468Z,35
2023-05-31T08:43:28.966Z,35
2023-05-31T08:44:24.224Z,34
2023-05-31T08:45:21.397Z,34
2023-05-31T08:46:21.994Z,33
2023-05-31T08:47:26.977Z,33
2023-05-31T08:48:22.648Z,34
2023-05-31T08:49:24.923Z,32
2023-05-31T08:50:30.347Z,33
2023-05-31T08:51:25.220Z,33
2023-05-31T08:52:20.530Z,32
2023-05-31T08:53:27.882Z,31
2023-05-31T08:54:27.734Z,31
2023-05-31T08:55:24.362Z,31
2023-05-31T08:56:24.602Z,32
2023-05-31T08:57:22.661Z,32
2023-05-31T08:58:25.807Z,31
2023-05-31T08:59:20.305Z,30
2023-05-31T09:00:44.591Z,31
2023-05-31T09:01:23.209Z,30
2023-05-31T09:02:24.389Z,31
2023-05-31T09:03:27.207Z,31
2023-05-31T09:04:31.409Z,31
2023-05-31T09:05:24.703Z,31
2023-05-31T09:06:23.071Z,30
2023-05-31T09:07:22.642Z,30
2023-05-31T09:08:26.772Z,31
2023-05-31T09:09:20.384Z,30
2023-05-31T09:10:32.665Z,30
2023-05-31T09:11:30.314Z,31
2023-05-31T09:12:24.894Z,30
2023-05-31T09:13:21.127Z,29
2023-05-31T09:14:21.376Z,29
2023-05-31T09:15:26.716Z,30
2023-05-31T09:16:25.001Z,30
2023-05-31T09:17:33.584Z,30
2023-05-31T09:18:28.913Z,28
2023-05-31T09:19:28.725Z,30
2023-05-31T09:20:20.940Z,29
2023-05-31T09:21:31.863Z,28
2023-05-31T09:22:26.733Z,28
2023-05-31T09:23:24.099Z,29
2023-05-31T09:24:21.874Z,29
2023-05-31T09:25:28.736Z,29
2023-05-31T09:26:24.741Z,27
2023-05-31T09:27:21.408Z,28
2023-05-31T09:28:32.188Z,28
2023-05-31T09:29:28.688Z,28
2023-05-31T09:30:23.711Z,28
2023-05-31T09:31:23.277Z,29
2023-05-31T09:32:28.687Z,28
2023-05-31T09:33:25.187Z,28
2023-05-31T09:34:23.847Z,29
2023-05-31T09:35:22.073Z,29
2023-05-31T09:36:26.551Z,28
2023-05-31T09:37:22.725Z,28
2023-05-31T09:38:28.900Z,28
2023-05-31T09:39:23.115Z,27
2023-05-31T09:40:24.824Z,28
2023-05-31T09:41:20.632Z,28
2023-05-31T09:42:25.996Z,28
2023-05-31T09:43:28.850Z,29
2023-05-31T09:44:22.667Z,27
2023-05-31T09:45:33.265Z,26
2023-05-31T09:46:28.352Z,25
2023-05-31T09:47:22.055Z,26
2023-05-31T09:48:24.848Z,26
2023-05-31T09:49:31.604Z,26
2023-05-31T09:50:23.885Z,27
2023-05-31T09:51:25.012Z,26
2023-05-31T09:52:33.001Z,27
2023-05-31T09:53:31.307Z,27
2023-05-31T09:54:27.703Z,27
2023-05-31T09:55:20.629Z,26
2023-05-31T09:56:31.028Z,26
2023-05-31T09:57:29.366Z,26
2023-05-31T09:58:22.692Z,26
2023-05-31T09:59:22.528Z,26
2023-05-31T10:00:29.472Z,26
2023-05-31T10:01:27.223Z,25
2023-05-31T10:02:20.618Z,26
2023-05-31T10:03:30.841Z,26
2023-05-31T10:04:27.188Z,26
2023-05-31T10:05:22.446Z,26
2023-05-31T10:06:34.712Z,25
2023-05-31T10:07:29.371Z,25
2023-05-31T10:08:26.735Z,25
2023-05-31T10:09:20.495Z,26
2023-05-31T10:10:30.844Z,25
2023-05-31T10:11:32.547Z,25
2023-05-31T10:12:23.014Z,25
2023-05-31T10:13:23.179Z,25
2023-05-31T10:14:29.837Z,25
2023-05-31T10:15:25.721Z,24
2023-05-31T10:16:22.847Z,24
2023-05-31T10:17:20.818Z,24
2023-05-31T10:18:27.449Z,24
2023-05-31T10:19:22.951Z,24
2023-05-31T10:20:26.611Z,23
2023-05-31T10:21:29.019Z,24
2023-05-31T10:22:29.196Z,23
2023-05-31T10:23:22.008Z,23
2023-05-31T10:24:26.974Z,24
2023-05-31T10:25:29.004Z,24
2023-05-31T10:26:22.933Z,24
2023-05-31T10:27:19.482Z,24
2023-05-31T10:28:22.962Z,23
2023-05-31T10:29:27.324Z,23
2023-05-31T10:30:21.006Z,23
2023-05-31T10:31:31.822Z,24
2023-05-31T10:32:22.156Z,24
2023-05-31T10:33:26.225Z,24
2023-05-31T10:34:19.988Z,24
2023-05-31T10:35:30.787Z,24
2023-05-31T10:36:20.648Z,24
2023-05-31T10:37:22.091Z,22
2023-05-31T10:38:33.217Z,22
2023-05-31T10:39:30.327Z,22
2023-05-31T10:40:23.528Z,22
2023-05-31T10:41:27.019Z,22
2023-05-31T10:42:29.941Z,23
2023-05-31T10:43:24.789Z,22
2023-05-31T10:44:22.578Z,23
2023-05-31T10:45:32.590Z,23
2023-05-31T10:46:27.371Z,23
2023-05-31T10:47:23.944Z,23
2023-05-31T10:48:25.777Z,23
2023-05-31T10:49:28.530Z,22
2023-05-31T10:50:31.078Z,22
2023-05-31T10:51:22.522Z,22
2023-05-31T10:52:24.873Z,23
2023-05-31T10:53:28.073Z,25
2023-05-31T10:54:22.799Z,25
2023-05-31T10:55:22.111Z,25
2023-05-31T10:56:29.231Z,24
2023-05-31T10:57:25.389Z,24
2023-05-31T10:58:22.186Z,23
2023-05-31T10:59:25.283Z,22
2023-05-31T11:00:26.913Z,22
2023-05-31T11:01:25.720Z,23
2023-05-31T11:02:23.970Z,23
2023-05-31T11:03:29.038Z,22
2023-05-31T11:04:26.181Z,23
2023-05-31T11:05:21.446Z,22
2023-05-31T11:06:24.132Z,22
2023-05-31T11:07:29.678Z,21
2023-05-31T11:08:22.595Z,22
2023-05-31T11:09:27.999Z,21
2023-05-31T11:10:23.334Z,22
2023-05-31T11:11:25.308Z,22
2023-05-31T11:12:23.638Z,22
2023-05-31T11:13:34.828Z,21
2023-05-31T11:14:20.436Z,21
2023-05-31T11:15:24.281Z,20
2023-05-31T11:16:34.589Z,22
2023-05-31T11:17:26.119Z,21
2023-05-31T11:18:26.937Z,22
2023-05-31T11:19:20.505Z,21
2023-05-31T11:20:31.434Z,21
2023-05-31T11:21:20.086Z,21
2023-05-31T11:22:23.166Z,21
2023-05-31T11:23:33.903Z,21
2023-05-31T11:24:30.633Z,21
2023-05-31T11:25:24.074Z,21
2023-05-31T11:26:22.591Z,21
2023-05-31T11:27:30.995Z,21
2023-05-31T11:28:22.698Z,21
2023-05-31T11:29:24.751Z,21
2023-05-31T11:30:37.376Z,21
2023-05-31T11:31:33.212Z,21
2023-05-31T11:32:26.098Z,21
2023-05-31T11:33:39.580Z,21
2023-05-31T11:34:30.740Z,20
2023-05-31T11:35:27.367Z,21
2023-05-31T11:36:25.592Z,20
2023-05-31T11:37:33.795Z,21
2023-05-31T11:38:28.857Z,20
2023-05-31T11:39:20.708Z,20
2023-05-31T11:40:24.780Z,20
2023-05-31T11:41:32.694Z,19
2023-05-31T11:42:28.913Z,20
2023-05-31T11:43:22.746Z,19
2023-05-31T11:44:24.233Z,19
2023-05-31T11:45:28.869Z,20
2023-05-31T11:46:24.871Z,20
2023-05-31T11:47:20.985Z,20
2023-05-31T11:48:20.173Z,20
2023-05-31T11:49:28.346Z,19
2023-05-31T11:50:23.154Z,18
2023-05-31T11:51:28.842Z,19
2023-05-31T11:52:20.237Z,19
2023-05-31T11:53:26.908Z,19
2023-05-31T11:54:21.737Z,19
2023-05-31T11:55:25.667Z,20
2023-05-31T11:56:26.696Z,20
2023-05-31T11:57:22.770Z,20
2023-05-31T11:58:35.469Z,21
2023-05-31T11:59:25.386Z,21
2023-05-31T12:00:26.557Z,20
2023-05-31T12:01:20.810Z,20
2023-05-31T12:02:29.323Z,19
2023-05-31T12:03:23.094Z,19
2023-05-31T12:04:25.675Z,19
2023-05-31T12:05:36.384Z,19
2023-05-31T12:06:30.130Z,19
2023-05-31T12:07:21.652Z,19
2023-05-31T12:08:20.764Z,19
2023-05-31T12:09:32.934Z,19
2023-05-31T12:10:26.553Z,19
2023-05-31T12:11:22.647Z,19
2023-05-31T12:12:34.383Z,19
2023-05-31T12:13:29.136Z,19
2023-05-31T12:14:27.011Z,19
2023-05-31T12:15:23.622Z,19
2023-05-31T12:16:30.958Z,19
2023-05-31T12:17:30.752Z,19
2023-05-31T12:18:22.700Z,19
2023-05-31T12:19:44.032Z,19
2023-05-31T12:20:29.163Z,19
2023-05-31T12:21:25.988Z,19
2023-05-31T12:22:22.885Z,19
2023-05-31T12:23:30.693Z,19
2023-05-31T12:24:29.690Z,20
2023-05-31T12:25:22.716Z,20
2023-05-31T12:26:22.829Z,19
2023-05-31T12:27:41.166Z,20
2023-05-31T12:28:26.113Z,19
2023-05-31T12:29:20.628Z,19
2023-05-31T12:30:19.930Z,18
2023-05-31T12:31:29.822Z,19
2023-05-31T12:32:23.986Z,19
2023-05-31T12:33:26.442Z,19
2023-05-31T12:34:28.985Z,20
2023-05-31T12:35:26.822Z,20
2023-05-31T12:36:21.063Z,19
2023-05-31T12:37:23.972Z,20
2023-05-31T12:38:26.951Z,19
2023-05-31T12:39:25.851Z,19
2023-05-31T12:40:34.041Z,20
2023-05-31T12:41:19.416Z,20
2023-05-31T12:42:25.106Z,19
2023-05-31T12:43:22.678Z,20
2023-05-31T12:44:21.859Z,19
2023-05-31T12:45:23.310Z,19
2023-05-31T12:46:23.108Z,19
2023-05-31T12:47:32.798Z,19
2023-05-31T12:48:23.985Z,19
2023-05-31T12:49:26.177Z,21
2023-05-31T12:50:21.178Z,22
2023-05-31T12:51:26.509Z,21
2023-05-31T12:52:27.895Z,20
2023-05-31T12:53:23.787Z,20
2023-05-31T12:54:35.406Z,19
2023-05-31T12:55:19.790Z,20
2023-05-31T12:56:21.813Z,19
2023-05-31T12:57:21.265Z,20
2023-05-31T12:58:30.993Z,20
2023-05-31T12:59:26.882Z,19
2023-05-31T13:00:39.873Z,19
2023-05-31T13:01:38.925Z,20
2023-05-31T13:02:23.412Z,20
2023-05-31T13:03:26.654Z,20
2023-05-31T13:04:21.284Z,19
2023-05-31T13:05:29.017Z,19
2023-05-31T13:06:26.902Z,19
2023-05-31T13:07:22.895Z,19
2023-05-31T13:08:21.801Z,19
2023-05-31T13:09:29.329Z,19
2023-05-31T13:10:21.944Z,20
2023-05-31T13:11:21.990Z,19
2023-05-31T13:12:33.686Z,19
2023-05-31T13:13:23.164Z,19
2023-05-31T13:14:26.134Z,19
2023-05-31T13:15:25.224Z,20
2023-05-31T13:16:26.070Z,20
2023-05-31T13:17:25.087Z,20
2023-05-31T13:18:22.935Z,20
2023-05-31T13:19:32.606Z,19
2023-05-31T13:20:27.035Z,19
2023-05-31T13:21:23.740Z,19
2023-05-31T13:22:30.293Z,19
2023-05-31T13:23:21.270Z,19
2023-05-31T13:24:26.121Z,19
2023-05-31T13:25:20.748Z,19
2023-05-31T13:26:22.700Z,19
2023-05-31T13:27:23.670Z,19
2023-05-31T13:28:23.576Z,20
2023-05-31T13:29:34.030Z,19
2023-05-31T13:30:25.364Z,18
2023-05-31T13:31:23.143Z,19
2023-05-31T13:32:20.914Z,17
2023-05-31T13:33:32.755Z,18
2023-05-31T13:34:19.849Z,18
2023-05-31T13:35:24.234Z,18
2023-05-31T13:36:34.425Z,18
2023-05-31T13:37:34.025Z,19
2023-05-31T13:38:23.131Z,19
2023-05-31T13:39:20.756Z,20
2023-05-31T13:40:32.235Z,21
2023-05-31T13:41:23.898Z,21
2023-05-31T13:42:23.102Z,21
2023-05-31T13:43:34.123Z,20
2023-05-31T13:44:25.407Z,21
2023-05-31T13:45:27.771Z,20
2023-05-31T13:46:22.858Z,20
2023-05-31T13:47:33.554Z,19
2023-05-31T13:48:28.086Z,19
2023-05-31T13:49:21.871Z,20
2023-05-31T13:50:33.869Z,20
2023-05-31T13:51:29.602Z,19
2023-05-31T13:52:26.295Z,20
2023-05-31T13:53:24.313Z,23
2023-05-31T13:54:31.395Z,23
2023-05-31T13:55:24.055Z,22
2023-05-31T13:56:27.298Z,22
2023-05-31T13:57:32.896Z,20
2023-05-31T13:58:30.780Z,19
2023-05-31T13:59:24.966Z,19
2023-05-31T14:00:28.412Z,20
2023-05-31T14:01:21.514Z,20
2023-05-31T14:02:29.037Z,21
2023-05-31T14:03:23.053Z,22
2023-05-31T14:04:23.917Z,22
2023-05-31T14:05:28.957Z,23
2023-05-31T14:06:24.905Z,23
2023-05-31T14:07:21.023Z,23
2023-05-31T14:08:25.461Z,24
2023-05-31T14:09:27.004Z,23
2023-05-31T14:10:22.971Z,27
2023-05-31T14:11:26.046Z,25
2023-05-31T14:12:24.672Z,25
2023-05-31T14:13:26.604Z,24
2023-05-31T14:14:20.691Z,25
2023-05-31T14:15:31.841Z,25
2023-05-31T14:16:24.351Z,26
2023-05-31T14:17:22.672Z,30
2023-05-31T14:18:22.334Z,28
2023-05-31T14:19:25.123Z,27
2023-05-31T14:20:24.913Z,26
2023-05-31T14:21:21.015Z,25
2023-05-31T14:22:35.810Z,24
2023-05-31T14:23:20.888Z,23
2023-05-31T14:24:19.488Z,23
2023-05-31T14:25:26.552Z,24
2023-05-31T14:26:29.287Z,24
2023-05-31T14:27:22.536Z,25
2023-05-31T14:28:21.118Z,24
2023-05-31T14:29:21.523Z,22
2023-05-31T14:30:27.217Z,22
2023-05-31T14:31:23.988Z,22
2023-05-31T14:32:28.660Z,22